createdAt,value
2023-05-18T00:01:07.164Z,2.45
2023-05-18T00:03:34.061Z,2.45
2023-05-18T00:06:00.858Z,2.28
2023-05-18T00:08:27.463Z,2.22
2023-05-18T00:10:54.057Z,2.78
2023-05-18T00:13:20.660Z,3.13
2023-05-18T00:15:47.486Z,2.03
2023-05-18T00:18:14.283Z,3.75
2023-05-18T00:20:40.969Z,3.05
2023-05-18T00:23:07.644Z,2.45
2023-05-18T00:25:34.255Z,2.15
2023-05-18T00:28:00.933Z,2.05
2023-05-18T00:30:27.594Z,2.75
2023-05-18T00:32:56.669Z,2.20
2023-05-18T00:35:23.400Z,2.90
2023-05-18T00:37:50.054Z,2.83
2023-05-18T00:40:17.152Z,3.75
2023-05-18T00:42:43.748Z,2.20
2023-05-18T00:45:10.668Z,2.25
2023-05-18T00:47:37.439Z,2.40
2023-05-18T00:50:04.524Z,2.30
2023-05-18T00:52:31.364Z,2.20
2023-05-18T00:55:01.427Z,2.40
2023-05-18T00:57:28.285Z,3.08
2023-05-18T00:59:56.392Z,2.55
2023-05-18T01:02:23.430Z,2.33
2023-05-18T01:04:50.323Z,2.75
2023-05-18T01:07:16.976Z,2.60
2023-05-18T01:09:43.657Z,2.70
2023-05-18T01:12:21.278Z,2.13
2023-05-18T01:15:19.404Z,2.25
2023-05-18T01:18:01.389Z,3.08
2023-05-18T01:20:32.707Z,2.20
2023-05-18T01:23:05.489Z,2.55
2023-05-18T01:25:42.108Z,1.73
2023-05-18T01:28:15.294Z,2.08
2023-05-18T01:30:43.062Z,2.20
2023-05-18T01:33:13.922Z,2.55
2023-05-18T01:35:40.628Z,2.40
2023-05-18T01:38:07.528Z,2.05
2023-05-18T01:41:18.983Z,2.72
2023-05-18T01:44:06.007Z,2.58
2023-05-18T01:46:35.490Z,2.33
2023-05-18T01:49:16.562Z,2.85
2023-05-18T01:51:47.258Z,2.20
2023-05-18T01:54:19.206Z,2.53
2023-05-18T01:56:48.823Z,2.53
2023-05-18T01:59:16.248Z,2.83
2023-05-18T02:01:42.997Z,1.63
2023-05-18T02:04:10.421Z,3.03
2023-05-18T02:06:37.539Z,2.45
2023-05-18T02:09:05.368Z,2.20
2023-05-18T02:11:32.880Z,2.78
2023-05-18T02:13:59.632Z,3.10
2023-05-18T02:16:26.746Z,2.75
2023-05-18T02:18:53.437Z,3.10
2023-05-18T02:21:20.088Z,2.72
2023-05-18T02:23:46.774Z,2.70
2023-05-18T02:26:14.216Z,2.88
2023-05-18T02:28:41.225Z,3.40
2023-05-18T02:31:09.548Z,3.05
2023-05-18T02:33:36.329Z,2.95
2023-05-18T02:36:03.013Z,3.72
2023-05-18T02:38:29.711Z,2.42
2023-05-18T02:40:56.324Z,3.35
2023-05-18T02:43:23.026Z,4.20
2023-05-18T02:45:49.757Z,2.83
2023-05-18T02:48:17.134Z,2.88
2023-05-18T02:50:43.868Z,3.35
2023-05-18T02:53:10.572Z,3.05
2023-05-18T02:55:37.328Z,3.30
2023-05-18T02:58:12.997Z,3.35
2023-05-18T03:01:18.021Z,3.95
2023-05-18T03:03:49.634Z,3.35
2023-05-18T03:06:16.352Z,3.75
2023-05-18T03:08:44.596Z,3.33
2023-05-18T03:11:12.861Z,3.20
2023-05-18T03:13:39.611Z,2.97
2023-05-18T03:16:06.371Z,3.13
2023-05-18T03:18:33.321Z,3.13
2023-05-18T03:20:59.956Z,3.25
2023-05-18T03:23:26.657Z,3.75
2023-05-18T03:25:53.334Z,3.05
2023-05-18T03:28:21.253Z,2.80
2023-05-18T03:30:48.301Z,3.35
2023-05-18T03:33:15.017Z,2.78
2023-05-18T03:35:42.044Z,3.40
2023-05-18T03:38:09.204Z,3.30
2023-05-18T03:40:38.342Z,3.17
2023-05-18T03:43:05.476Z,3.22
2023-05-18T03:45:33.569Z,3.70
2023-05-18T03:48:00.996Z,2.83
2023-05-18T03:50:28.790Z,3.92
2023-05-18T03:52:56.410Z,3.50
2023-05-18T03:55:23.378Z,3.10
2023-05-18T03:57:50.053Z,3.00
2023-05-18T04:00:17.301Z,3.38
2023-05-18T04:02:44.170Z,3.05
2023-05-18T04:05:13.150Z,2.92
2023-05-18T04:07:39.914Z,3.15
2023-05-18T04:10:08.913Z,2.88
2023-05-18T04:12:35.530Z,2.97
2023-05-18T04:15:02.304Z,3.00
2023-05-18T04:17:28.973Z,3.13
2023-05-18T04:19:55.736Z,2.53
2023-05-18T04:22:22.537Z,3.00
2023-05-18T04:24:49.997Z,3.67
2023-05-18T04:27:16.707Z,3.25
2023-05-18T04:29:43.784Z,2.05
2023-05-18T04:32:11.034Z,2.85
2023-05-18T04:34:38.130Z,2.93
2023-05-18T04:37:05.618Z,2.63
2023-05-18T04:39:33.961Z,3.17
2023-05-18T04:42:02.501Z,3.10
2023-05-18T04:44:31.288Z,3.85
2023-05-18T04:46:59.974Z,4.45
2023-05-18T04:49:26.845Z,3.57
2023-05-18T04:51:54.949Z,2.60
2023-05-18T04:54:26.288Z,2.33
2023-05-18T04:56:53.320Z,2.92
2023-05-18T04:59:20.352Z,2.20
2023-05-18T05:01:47.137Z,2.03
2023-05-18T05:04:14.270Z,2.40
2023-05-18T05:06:41.419Z,3.63
2023-05-18T05:09:08.156Z,3.03
2023-05-18T05:11:34.959Z,2.83
2023-05-18T05:14:02.939Z,3.78
2023-05-18T05:16:29.739Z,2.83
2023-05-18T05:18:56.619Z,2.45
2023-05-18T05:21:23.369Z,3.80
2023-05-18T05:23:51.139Z,3.28
2023-05-18T05:26:18.616Z,3.63
2023-05-18T05:28:46.100Z,3.33
2023-05-18T05:31:13.067Z,3.60
2023-05-18T05:33:40.031Z,2.58
2023-05-18T05:36:07.233Z,3.30
2023-05-18T05:38:34.760Z,2.85
2023-05-18T05:41:01.936Z,3.65
2023-05-18T05:43:28.885Z,2.93
2023-05-18T05:45:55.827Z,2.90
2023-05-18T05:48:22.719Z,3.40
2023-05-18T05:50:49.574Z,3.40
2023-05-18T05:53:16.660Z,3.30
2023-05-18T05:55:43.991Z,3.33
2023-05-18T05:58:14.040Z,3.47
2023-05-18T06:00:43.796Z,2.20
2023-05-18T06:03:10.583Z,4.72
2023-05-18T06:05:41.105Z,2.80
2023-05-18T06:08:09.747Z,3.40
2023-05-18T06:10:36.482Z,3.08
2023-05-18T06:13:03.721Z,3.93
2023-05-18T06:15:40.761Z,3.55
2023-05-18T06:18:07.655Z,3.83
2023-05-18T06:20:35.015Z,4.07
2023-05-18T06:23:01.772Z,3.33
2023-05-18T06:25:51.638Z,2.88
2023-05-18T06:28:30.185Z,3.80
2023-05-18T06:31:01.631Z,3.28
2023-05-18T06:33:31.693Z,3.28
2023-05-18T06:35:58.373Z,2.80
2023-05-18T06:38:25.325Z,3.15
2023-05-18T06:40:51.973Z,3.40
2023-05-18T06:43:18.627Z,2.75
2023-05-18T06:45:56.726Z,2.85
2023-05-18T06:48:36.176Z,2.28
2023-05-18T06:51:03.014Z,3.38
2023-05-18T06:53:29.713Z,3.78
2023-05-18T06:55:56.509Z,2.78
2023-05-18T06:58:23.446Z,3.03
2023-05-18T07:00:51.115Z,3.75
2023-05-18T07:03:17.896Z,2.88
2023-05-18T07:05:44.730Z,2.10
2023-05-18T07:08:11.430Z,2.63
2023-05-18T07:10:38.080Z,3.13
2023-05-18T07:13:04.947Z,3.17
2023-05-18T07:15:31.981Z,2.50
2023-05-18T07:17:58.900Z,3.67
2023-05-18T07:20:26.553Z,3.13
2023-05-18T07:22:53.522Z,2.85
2023-05-18T07:25:20.277Z,2.20
2023-05-18T07:27:46.887Z,2.95
2023-05-18T07:30:13.831Z,2.42
2023-05-18T07:32:40.488Z,2.42
2023-05-18T07:35:07.308Z,2.13
2023-05-18T07:37:33.923Z,2.63
2023-05-18T07:40:01.108Z,2.50
2023-05-18T07:42:27.799Z,2.90
2023-05-18T07:44:54.514Z,3.00
2023-05-18T07:47:21.158Z,2.72
2023-05-18T07:49:48.359Z,2.75
2023-05-18T07:52:15.080Z,3.50
2023-05-18T07:54:41.752Z,2.95
2023-05-18T07:57:08.436Z,3.10
2023-05-18T07:59:35.239Z,3.45
2023-05-18T08:02:01.934Z,3.28
2023-05-18T08:04:28.865Z,3.25
2023-05-18T08:06:55.577Z,2.67
2023-05-18T08:09:22.194Z,4.03
2023-05-18T08:11:48.823Z,3.75
2023-05-18T08:14:15.519Z,3.15
2023-05-18T08:16:42.341Z,3.38
2023-05-18T08:19:09.325Z,3.10
2023-05-18T08:21:39.241Z,3.45
2023-05-18T08:24:07.724Z,2.65
2023-05-18T08:26:34.371Z,4.13
2023-05-18T08:29:01.077Z,3.03
2023-05-18T08:31:27.746Z,3.60
2023-05-18T08:33:54.378Z,3.30
2023-05-18T08:36:21.003Z,3.22
2023-05-18T08:38:47.679Z,3.40
2023-05-18T08:41:26.273Z,2.15
2023-05-18T08:43:59.436Z,2.42
2023-05-18T08:46:34.338Z,2.40
2023-05-18T08:49:02.495Z,3.65
2023-05-18T08:51:33.648Z,3.67
2023-05-18T08:54:00.838Z,3.53
2023-05-18T08:56:30.906Z,2.83
2023-05-18T08:58:58.572Z,3.20
2023-05-18T09:01:26.685Z,3.03
2023-05-18T09:06:23.978Z,2.90
2023-05-18T09:08:53.357Z,4.30
2023-05-18T09:11:21.350Z,2.53
2023-05-18T09:13:49.433Z,2.78
2023-05-18T09:18:42.850Z,3.42
2023-05-18T09:21:09.796Z,3.63
2023-05-18T09:23:39.050Z,3.38
2023-05-18T09:26:05.755Z,2.60
2023-05-18T09:28:43.147Z,2.72
2023-05-18T09:31:16.295Z,3.15
2023-05-18T09:33:45.234Z,3.55
2023-05-18T09:36:12.369Z,3.58
2023-05-18T09:38:40.627Z,2.70
2023-05-18T09:41:11.199Z,3.28
2023-05-18T09:43:38.233Z,3.63
2023-05-18T09:46:09.489Z,2.80
2023-05-18T09:48:37.790Z,3.60
2023-05-18T09:51:06.100Z,2.60
2023-05-18T09:53:35.981Z,3.38
2023-05-18T09:56:05.774Z,4.57
2023-05-18T09:58:33.880Z,2.80
2023-05-18T10:03:34.078Z,2.67
2023-05-18T10:06:11.276Z,3.25
2023-05-18T10:08:38.189Z,2.60
2023-05-18T10:11:05.558Z,2.40
2023-05-18T10:13:33.705Z,2.97
2023-05-18T10:18:47.429Z,3.28
2023-05-18T10:21:16.923Z,3.67
2023-05-18T10:23:45.172Z,3.25
2023-05-18T10:26:13.893Z,3.05
2023-05-18T10:28:50.120Z,3.63
2023-05-18T10:31:17.373Z,2.05
2023-05-18T10:33:45.078Z,2.40
2023-05-18T10:36:11.923Z,2.42
2023-05-18T10:38:38.948Z,2.95
2023-05-18T10:41:06.373Z,2.42
2023-05-18T10:43:34.335Z,2.97
2023-05-18T10:48:29.705Z,3.23
2023-05-18T10:50:58.182Z,2.65
2023-05-18T10:53:26.759Z,2.95
2023-05-18T10:55:54.557Z,2.72
2023-05-18T10:58:25.003Z,2.08
2023-05-18T11:00:55.002Z,2.30
2023-05-18T11:03:22.047Z,2.03
2023-05-18T11:06:04.352Z,2.50
2023-05-18T11:08:31.030Z,2.03
2023-05-18T11:11:05.495Z,2.40
2023-05-18T11:13:33.136Z,2.00
2023-05-18T11:15:59.882Z,2.53
2023-05-18T11:18:36.019Z,2.03
2023-05-18T11:21:02.983Z,2.10
2023-05-18T11:23:33.282Z,2.67
2023-05-18T11:26:01.518Z,2.50
2023-05-18T11:28:28.148Z,2.50
2023-05-18T11:30:54.814Z,2.33
2023-05-18T11:33:23.044Z,2.92
2023-05-18T11:36:03.617Z,3.08
2023-05-18T11:38:51.522Z,2.28
2023-05-18T11:41:35.169Z,2.75
2023-05-18T11:44:18.272Z,2.58
2023-05-18T11:47:05.080Z,2.38
2023-05-18T11:49:36.174Z,2.25
2023-05-18T11:52:14.741Z,2.60
2023-05-18T11:54:49.697Z,2.42
2023-05-18T11:57:18.661Z,2.13
2023-05-18T11:59:48.058Z,2.35
2023-05-18T12:02:24.082Z,2.13
2023-05-18T12:04:58.378Z,2.70
2023-05-18T12:07:25.470Z,2.65
2023-05-18T12:09:52.129Z,2.58
2023-05-18T12:12:19.257Z,2.30
2023-05-18T12:14:53.111Z,1.97
2023-05-18T12:17:19.812Z,2.25
2023-05-18T12:19:49.058Z,1.95
2023-05-18T12:22:16.312Z,2.50
2023-05-18T12:24:44.092Z,2.03
2023-05-18T12:27:12.888Z,2.25
2023-05-18T12:29:41.329Z,2.10
2023-05-18T12:32:10.250Z,2.22
2023-05-18T12:34:38.217Z,2.10
2023-05-18T12:37:06.430Z,2.28
2023-05-18T12:39:33.153Z,2.20
2023-05-18T12:42:13.836Z,1.92
2023-05-18T12:44:41.897Z,1.65
2023-05-18T12:47:08.598Z,1.75
2023-05-18T12:49:40.183Z,2.03
2023-05-18T12:52:14.762Z,1.58
2023-05-18T12:54:52.472Z,1.92
2023-05-18T12:57:19.161Z,2.47
2023-05-18T12:59:49.076Z,1.63
2023-05-18T13:02:29.262Z,1.80
2023-05-18T13:05:10.063Z,1.50
2023-05-18T13:07:45.733Z,1.45
2023-05-18T13:10:16.868Z,2.05
2023-05-18T13:12:47.331Z,2.10
2023-05-18T13:15:15.121Z,2.35
2023-05-18T13:18:09.534Z,1.55
2023-05-18T13:20:41.678Z,2.13
2023-05-18T13:23:25.299Z,2.60
2023-05-18T13:25:52.386Z,1.95
2023-05-18T13:28:20.988Z,1.73
2023-05-18T13:30:49.444Z,2.05
2023-05-18T13:33:17.545Z,2.00
2023-05-18T13:38:13.117Z,1.43
2023-05-18T13:40:41.117Z,2.42
2023-05-18T13:43:10.097Z,1.35
2023-05-18T13:45:38.089Z,1.65
2023-05-18T13:48:06.877Z,1.48
2023-05-18T13:50:34.969Z,1.38
2023-05-18T13:53:01.890Z,2.20
2023-05-18T13:55:31.729Z,1.23
2023-05-18T13:57:58.753Z,1.42
2023-05-18T14:00:25.500Z,1.75
2023-05-18T14:02:52.381Z,1.80
2023-05-18T14:05:19.109Z,1.15
2023-05-18T14:07:45.786Z,1.38
2023-05-18T14:10:13.527Z,1.50
2023-05-18T14:12:40.662Z,1.00
2023-05-18T14:15:07.823Z,0.88
2023-05-18T14:17:34.656Z,1.53
2023-05-18T14:20:01.874Z,1.55
2023-05-18T14:22:28.491Z,1.50
2023-05-18T14:24:55.083Z,1.40
2023-05-18T14:27:22.040Z,1.48
2023-05-18T14:29:49.759Z,1.45
2023-05-18T14:32:17.135Z,2.03
2023-05-18T14:34:43.874Z,1.67
2023-05-18T14:37:10.554Z,1.50
2023-05-18T14:39:37.165Z,1.35
2023-05-18T14:42:03.983Z,1.05
2023-05-18T14:44:30.578Z,1.40
2023-05-18T14:46:57.312Z,1.40
2023-05-18T14:49:24.042Z,1.23
2023-05-18T14:51:50.637Z,1.00
2023-05-18T14:54:17.235Z,1.67
2023-05-18T14:56:43.921Z,4.82
2023-05-18T14:59:10.606Z,1.10
2023-05-18T15:01:37.461Z,1.50
2023-05-18T15:04:04.251Z,1.40
2023-05-18T15:06:30.946Z,1.45
2023-05-18T15:08:57.747Z,2.15
2023-05-18T15:11:24.371Z,2.15
2023-05-18T15:13:50.981Z,1.10
2023-05-18T15:16:17.830Z,1.17
2023-05-18T15:18:44.525Z,1.15
2023-05-18T15:21:11.177Z,1.20
2023-05-18T15:23:37.944Z,1.48
2023-05-18T15:26:06.714Z,1.33
2023-05-18T15:28:34.906Z,1.42
2023-05-18T15:31:01.518Z,1.52
2023-05-18T15:33:28.203Z,0.93
2023-05-18T15:35:54.819Z,1.10
2023-05-18T15:38:21.443Z,1.77
2023-05-18T15:40:48.064Z,1.08
2023-05-18T15:43:14.650Z,0.90
2023-05-18T15:45:41.374Z,1.73
2023-05-18T15:48:08.099Z,0.70
2023-05-18T15:50:34.839Z,0.80
2023-05-18T15:53:01.445Z,1.23
2023-05-18T15:55:28.224Z,1.05
2023-05-18T15:57:55.466Z,1.50
2023-05-18T16:00:22.150Z,1.40
2023-05-18T16:02:48.908Z,1.23
2023-05-18T16:05:15.692Z,1.88
2023-05-18T16:07:42.276Z,1.15
2023-05-18T16:10:09.220Z,1.30
2023-05-18T16:12:35.876Z,1.00
2023-05-18T16:15:02.531Z,1.33
2023-05-18T16:17:32.095Z,1.40
2023-05-18T16:19:59.472Z,1.80
2023-05-18T16:22:27.501Z,1.17
2023-05-18T16:24:54.128Z,1.10
2023-05-18T16:27:20.731Z,1.02
2023-05-18T16:29:47.455Z,1.35
2023-05-18T16:32:14.133Z,0.98
2023-05-18T16:34:40.821Z,1.00
2023-05-18T16:37:07.464Z,1.17
2023-05-18T16:39:34.111Z,1.08
2023-05-18T16:42:00.741Z,1.10
2023-05-18T16:44:27.345Z,1.10
2023-05-18T16:46:54.167Z,1.40
2023-05-18T16:49:20.928Z,1.50
2023-05-18T16:51:47.515Z,1.00
2023-05-18T16:54:14.206Z,0.90
2023-05-18T16:56:40.922Z,1.02
2023-05-18T16:59:07.613Z,1.35
2023-05-18T17:01:34.267Z,1.17
2023-05-18T17:04:01.134Z,1.50
2023-05-18T17:06:27.932Z,1.58
2023-05-18T17:08:54.543Z,0.98
2023-05-18T17:11:21.143Z,1.20
2023-05-18T17:13:47.764Z,1.45
2023-05-18T17:16:14.726Z,1.17
2023-05-18T17:18:41.398Z,1.30
2023-05-18T17:21:08.054Z,0.90
2023-05-18T17:23:34.750Z,1.65
2023-05-18T17:26:06.618Z,1.48
2023-05-18T17:28:33.412Z,1.30
2023-05-18T17:31:00.128Z,1.13
2023-05-18T17:33:26.799Z,1.05
2023-05-18T17:35:53.448Z,1.45
2023-05-18T17:38:20.065Z,1.60
2023-05-18T17:40:46.702Z,1.00
2023-05-18T17:43:13.391Z,1.20
2023-05-18T17:45:40.448Z,1.15
2023-05-18T17:48:07.180Z,1.20
2023-05-18T17:50:34.160Z,1.10
2023-05-18T17:53:00.941Z,1.80
2023-05-18T17:55:27.661Z,1.50
2023-05-18T17:57:54.373Z,1.30
2023-05-18T18:00:21.389Z,1.88
2023-05-18T18:02:48.180Z,2.13
2023-05-18T18:05:14.956Z,1.63
2023-05-18T18:07:41.671Z,1.40
2023-05-18T18:10:08.790Z,1.00
2023-05-18T18:12:35.401Z,1.20
2023-05-18T18:15:02.206Z,1.00
2023-05-18T18:17:28.958Z,1.27
2023-05-18T18:19:55.699Z,1.10
2023-05-18T18:22:22.379Z,1.50
2023-05-18T18:24:49.099Z,1.60
2023-05-18T18:27:15.810Z,1.42
2023-05-18T18:29:42.468Z,1.85
2023-05-18T18:32:09.270Z,1.10
2023-05-18T18:34:36.028Z,0.73
2023-05-18T18:37:02.716Z,1.38
2023-05-18T18:39:29.400Z,1.20
2023-05-18T18:41:56.272Z,1.30
2023-05-18T18:44:23.057Z,1.13
2023-05-18T18:46:49.788Z,1.95
2023-05-18T18:49:16.519Z,1.13
2023-05-18T18:51:43.196Z,1.17
2023-05-18T18:54:09.789Z,1.63
2023-05-18T18:56:36.478Z,0.98
2023-05-18T18:59:03.109Z,1.30
2023-05-18T19:01:29.930Z,1.08
2023-05-18T19:03:56.570Z,0.98
2023-05-18T19:06:23.328Z,1.08
2023-05-18T19:08:50.067Z,0.80
2023-05-18T19:11:17.292Z,0.90
2023-05-18T19:13:43.897Z,0.80
2023-05-18T19:16:10.711Z,1.00
2023-05-18T19:18:37.361Z,1.25
2023-05-18T19:21:04.014Z,1.88
2023-05-18T19:23:30.824Z,2.50
2023-05-18T19:25:57.448Z,1.70
2023-05-18T19:28:24.167Z,1.45
2023-05-18T19:30:50.789Z,1.05
2023-05-18T19:33:17.445Z,1.45
2023-05-18T19:35:44.196Z,1.13
2023-05-18T19:38:11.251Z,1.60
2023-05-18T19:40:37.905Z,1.40
2023-05-18T19:43:04.508Z,1.20
2023-05-18T19:45:31.673Z,1.27
2023-05-18T19:47:58.915Z,0.98
2023-05-18T19:50:28.583Z,1.05
2023-05-18T19:52:55.285Z,1.20
2023-05-18T19:55:21.966Z,1.23
2023-05-18T19:57:49.041Z,1.33
2023-05-18T20:00:15.987Z,1.23
2023-05-18T20:02:42.691Z,1.10
2023-05-18T20:05:09.457Z,1.20
2023-05-18T20:07:36.210Z,1.35
2023-05-18T20:10:02.844Z,1.48
2023-05-18T20:12:29.492Z,1.38
2023-05-18T20:14:56.138Z,0.80
2023-05-18T20:17:22.815Z,0.90
2023-05-18T20:19:49.544Z,1.88
2023-05-18T20:22:17.453Z,1.00
2023-05-18T20:24:44.250Z,0.93
2023-05-18T20:27:13.375Z,1.50
2023-05-18T20:29:40.301Z,1.63
2023-05-18T20:32:07.103Z,0.98
2023-05-18T20:34:34.097Z,1.30
2023-05-18T20:37:00.736Z,1.60
2023-05-18T20:39:27.394Z,1.05
2023-05-18T20:41:54.032Z,1.45
2023-05-18T20:44:20.812Z,1.10
2023-05-18T20:46:47.640Z,1.35
2023-05-18T20:49:14.286Z,2.00
2023-05-18T20:51:40.996Z,1.42
2023-05-18T20:54:08.423Z,1.33
2023-05-18T20:56:36.408Z,1.70
2023-05-18T20:59:05.579Z,1.30
2023-05-18T21:01:33.117Z,1.83
2023-05-18T21:03:59.861Z,1.70
2023-05-18T21:06:26.847Z,1.50
2023-05-18T21:08:53.547Z,1.67
2023-05-18T21:11:20.346Z,1.98
2023-05-18T21:13:46.937Z,1.20
2023-05-18T21:16:13.812Z,1.30
2023-05-18T21:18:40.492Z,1.73
2023-05-18T21:21:10.316Z,1.80
2023-05-18T21:23:36.998Z,1.85
2023-05-18T21:26:03.965Z,1.95
2023-05-18T21:28:30.658Z,2.33
2023-05-18T21:30:57.290Z,2.00
2023-05-18T21:33:24.031Z,1.85
2023-05-18T21:35:50.732Z,2.17
2023-05-18T21:38:17.504Z,1.92
2023-05-18T21:40:44.378Z,2.10
2023-05-18T21:43:11.246Z,2.50
2023-05-18T21:45:38.986Z,2.25
2023-05-18T21:48:06.269Z,2.17
2023-05-18T21:50:33.174Z,3.07
2023-05-18T21:53:00.889Z,2.33
2023-05-18T21:55:27.734Z,2.33
2023-05-18T21:57:54.461Z,2.17
2023-05-18T22:00:21.316Z,2.08
2023-05-18T22:02:48.915Z,1.85
2023-05-18T22:05:15.676Z,2.38
2023-05-18T22:07:42.383Z,1.90
2023-05-18T22:10:09.287Z,3.38
2023-05-18T22:12:36.037Z,2.53
2023-05-18T22:15:02.743Z,2.63
2023-05-18T22:17:29.519Z,2.38
2023-05-18T22:19:56.245Z,2.97
2023-05-18T22:22:30.168Z,2.85
2023-05-18T22:24:57.778Z,2.67
2023-05-18T22:27:26.984Z,3.33
2023-05-18T22:29:53.727Z,3.38
2023-05-18T22:32:20.805Z,3.50
2023-05-18T22:34:47.604Z,2.67
2023-05-18T22:37:14.262Z,3.17
2023-05-18T22:39:40.920Z,2.80
2023-05-18T22:42:07.640Z,3.03
2023-05-18T22:44:34.264Z,2.92
2023-05-18T22:47:00.952Z,3.10
2023-05-18T22:49:27.538Z,2.92
2023-05-18T22:51:54.190Z,4.07
2023-05-18T22:54:21.795Z,3.10
2023-05-18T22:56:48.406Z,3.55
2023-05-18T22:59:15.058Z,3.40
2023-05-18T23:01:41.862Z,2.78
2023-05-18T23:04:08.744Z,2.85
2023-05-18T23:06:35.616Z,3.00
2023-05-18T23:09:02.313Z,3.25
2023-05-18T23:11:28.946Z,3.45
2023-05-18T23:13:55.708Z,3.30
2023-05-18T23:16:22.343Z,3.15
2023-05-18T23:18:49.182Z,2.60
2023-05-18T23:21:15.933Z,2.25
2023-05-18T23:23:42.536Z,3.05
2023-05-18T23:26:09.228Z,2.25
2023-05-18T23:28:35.931Z,2.78
2023-05-18T23:31:02.676Z,3.33
2023-05-18T23:33:29.722Z,3.50
2023-05-18T23:36:00.578Z,3.50
2023-05-18T23:38:31.138Z,3.17
2023-05-18T23:40:58.054Z,2.75
2023-05-18T23:43:24.946Z,2.53
2023-05-18T23:45:51.824Z,2.63
2023-05-18T23:48:18.820Z,3.13
2023-05-18T23:50:46.061Z,3.47
2023-05-18T23:53:15.178Z,2.93
2023-05-18T23:55:42.592Z,2.00
2023-05-18T23:58:09.775Z,3.40
